createdAt,value
2018-06-09T00:04:08.848Z,77
2018-06-09T00:09:08.277Z,77
2018-06-09T00:14:08.997Z,78
2018-06-09T00:19:08.836Z,78
2018-06-09T00:24:08.515Z,78
2018-06-09T00:29:08.152Z,78
2018-06-09T00:34:08.869Z,79
2018-06-09T00:39:08.610Z,79
2018-06-09T00:44:08.360Z,79
2018-06-09T00:49:09.182Z,79
2018-06-09T00:54:09.051Z,79
2018-06-09T00:59:08.772Z,79
2018-06-09T01:04:08.464Z,80
2018-06-09T01:09:08.622Z,80
2018-06-09T01:14:08.479Z,80
2018-06-09T01:19:08.409Z,80
2018-06-09T01:24:08.204Z,80
2018-06-09T01:29:08.902Z,80
2018-06-09T01:34:08.587Z,80
2018-06-09T01:39:08.234Z,80
2018-06-09T01:44:08.988Z,81
2018-06-09T01:49:08.657Z,81
2018-06-09T01:54:08.414Z,80
2018-06-09T01:59:09.039Z,80
2018-06-09T02:04:08.832Z,80
2018-06-09T02:09:08.355Z,80
2018-06-09T02:14:09.289Z,80
2018-06-09T02:19:09.020Z,80
2018-06-09T02:24:08.726Z,80
2018-06-09T02:29:08.383Z,80
2018-06-09T02:34:09.133Z,79
2018-06-09T02:39:08.871Z,79
2018-06-09T02:44:08.455Z,78
2018-06-09T02:49:09.146Z,78
2018-06-09T02:54:08.895Z,78
2018-06-09T02:59:08.807Z,78
2018-06-09T03:04:08.836Z,78
2018-06-09T03:09:08.452Z,78
2018-06-09T03:14:09.288Z,78
2018-06-09T03:19:09.031Z,78
2018-06-09T03:24:08.790Z,77
2018-06-09T03:29:08.435Z,77
2018-06-09T03:34:09.368Z,78
2018-06-09T03:39:09.000Z,78
2018-06-09T03:44:08.798Z,79
2018-06-09T03:49:08.471Z,79
2018-06-09T03:54:09.310Z,79
2018-06-09T03:59:09.139Z,79
2018-06-09T04:04:09.156Z,77
2018-06-09T04:09:08.837Z,77
2018-06-09T04:14:08.624Z,77
2018-06-09T04:19:09.012Z,77
2018-06-09T04:24:08.746Z,76
2018-06-09T04:29:08.843Z,76
2018-06-09T04:34:08.576Z,75
2018-06-09T04:39:09.168Z,75
2018-06-09T04:44:08.863Z,73
2018-06-09T04:49:08.653Z,73
2018-06-09T04:54:09.424Z,73
2018-06-09T04:59:09.141Z,73
2018-06-09T05:04:09.018Z,71
2018-06-09T05:09:08.958Z,71
2018-06-09T05:14:08.746Z,71
2018-06-09T05:19:08.514Z,71
2018-06-09T05:24:09.387Z,71
2018-06-09T05:29:09.046Z,71
2018-06-09T05:34:08.849Z,67
2018-06-09T05:39:08.562Z,67
2018-06-09T05:44:09.254Z,68
2018-06-09T05:49:09.037Z,68
2018-06-09T05:54:08.780Z,68
2018-06-09T05:59:08.534Z,68
2018-06-09T06:04:09.629Z,68
2018-06-09T06:09:09.322Z,68
2018-06-09T06:14:09.059Z,67
2018-06-09T06:19:09.232Z,67
2018-06-09T06:24:08.914Z,66
2018-06-09T06:29:08.721Z,66
2018-06-09T06:34:09.560Z,63
2018-06-09T06:39:09.263Z,63
2018-06-09T06:44:09.104Z,61
2018-06-09T06:49:08.986Z,61
2018-06-09T06:54:08.746Z,58
2018-06-09T06:59:09.475Z,58
2018-06-09T07:04:09.219Z,58
2018-06-09T07:09:09.333Z,58
2018-06-09T07:14:09.075Z,57
2018-06-09T07:19:09.064Z,57
2018-06-09T07:24:08.787Z,58
2018-06-09T07:29:09.532Z,58
2018-06-09T07:34:09.475Z,57
2018-06-09T07:39:09.307Z,57
2018-06-09T07:44:09.100Z,57
2018-06-09T07:49:08.815Z,57
2018-06-09T07:54:09.523Z,57
2018-06-09T07:59:09.288Z,57
2018-06-09T08:04:09.196Z,55
2018-06-09T08:09:08.891Z,55
2018-06-09T08:14:08.632Z,57
2018-06-09T08:19:09.397Z,57
2018-06-09T08:24:09.223Z,56
2018-06-09T08:29:09.009Z,56
2018-06-09T08:34:08.912Z,57
2018-06-09T08:39:09.524Z,57
2018-06-09T08:44:09.155Z,57
2018-06-09T08:49:08.897Z,57
2018-06-09T08:54:09.627Z,53
2018-06-09T08:59:09.385Z,53
2018-06-09T09:04:09.260Z,52
2018-06-09T09:09:09.135Z,52
2018-06-09T09:14:08.927Z,54
2018-06-09T09:19:09.675Z,54
2018-06-09T09:24:09.464Z,53
2018-06-09T09:29:09.199Z,53
2018-06-09T09:34:09.035Z,52
2018-06-09T09:39:08.886Z,52
2018-06-09T09:44:09.695Z,51
2018-06-09T09:49:09.489Z,51
2018-06-09T09:54:09.168Z,52
2018-06-09T09:59:08.952Z,52
2018-06-09T10:04:09.949Z,51
2018-06-09T10:09:09.405Z,51
2018-06-09T10:14:09.154Z,52
2018-06-09T10:19:08.967Z,52
2018-06-09T10:24:09.684Z,52
2018-06-09T10:29:09.434Z,52
2018-06-09T10:34:09.194Z,50
2018-06-09T10:39:08.857Z,50
2018-06-09T10:44:09.553Z,50
2018-06-09T10:49:09.378Z,50
2018-06-09T10:54:09.052Z,50
2018-06-09T10:59:09.760Z,50
2018-06-09T11:04:09.560Z,51
2018-06-09T11:09:09.518Z,51
2018-06-09T11:14:09.435Z,48
2018-06-09T11:19:09.189Z,48
2018-06-09T11:24:08.848Z,48
2018-06-09T11:29:09.543Z,48
2018-06-09T11:34:09.519Z,42
2018-06-09T11:39:09.311Z,42
2018-06-09T11:44:08.987Z,43
2018-06-09T11:49:09.802Z,43
2018-06-09T11:54:09.538Z,40
2018-06-09T11:59:09.413Z,40
2018-06-09T12:04:09.334Z,40
2018-06-09T12:09:09.296Z,40
2018-06-09T12:14:09.150Z,40
2018-06-09T12:19:09.892Z,40
2018-06-09T12:24:09.777Z,40
2018-06-09T12:29:09.522Z,40
2018-06-09T12:34:09.246Z,40
2018-06-09T12:39:09.073Z,40
2018-06-09T12:44:09.904Z,39
2018-06-09T12:49:09.739Z,39
2018-06-09T12:54:09.462Z,41
2018-06-09T12:59:09.149Z,41
2018-06-09T13:04:09.267Z,39
2018-06-09T13:09:09.040Z,39
2018-06-09T13:14:09.462Z,39
2018-06-09T13:19:09.288Z,39
2018-06-09T13:24:09.325Z,40
2018-06-09T13:29:25.838Z,40
2018-06-09T13:34:09.547Z,38
2018-06-09T13:39:09.214Z,38
2018-06-09T13:44:09.890Z,38
2018-06-09T13:49:09.669Z,38
2018-06-09T13:54:09.436Z,39
2018-06-09T13:59:09.232Z,39
2018-06-09T14:04:09.461Z,37
2018-06-09T14:09:09.161Z,37
2018-06-09T14:14:09.491Z,36
2018-06-09T14:19:09.294Z,36
2018-06-09T14:24:09.961Z,36
2018-06-09T14:29:09.734Z,36
2018-06-09T14:34:09.652Z,36
2018-06-09T14:39:09.436Z,36
2018-06-09T14:44:09.137Z,35
2018-06-09T14:49:09.962Z,35
2018-06-09T14:54:09.726Z,36
2018-06-09T14:59:09.448Z,36
2018-06-09T15:04:09.351Z,37
2018-06-09T15:09:09.212Z,37
2018-06-09T15:14:09.615Z,36
2018-06-09T15:19:09.417Z,36
2018-06-09T15:24:09.334Z,37
2018-06-09T15:29:10.064Z,37
2018-06-09T15:34:09.952Z,35
2018-06-09T15:39:09.751Z,35
2018-06-09T15:44:09.611Z,36
2018-06-09T15:49:09.484Z,36
2018-06-09T15:54:09.270Z,35
2018-06-09T15:59:10.011Z,35
2018-06-09T16:04:09.870Z,36
2018-06-09T16:09:09.846Z,36
2018-06-09T16:14:09.661Z,36
2018-06-09T16:19:09.441Z,36
2018-06-09T16:24:09.327Z,38
2018-06-09T16:29:10.137Z,38
2018-06-09T16:34:10.065Z,38
2018-06-09T16:39:09.771Z,38
2018-06-09T16:44:09.604Z,39
2018-06-09T16:49:09.357Z,39
2018-06-09T16:54:10.133Z,40
2018-06-09T16:59:09.910Z,40
2018-06-09T17:04:09.820Z,41
2018-06-09T17:09:09.742Z,41
2018-06-09T17:14:09.969Z,41
2018-06-09T17:19:09.882Z,41
2018-06-09T17:24:09.853Z,41
2018-06-09T17:29:09.710Z,41
2018-06-09T17:34:09.554Z,41
2018-06-09T17:39:09.297Z,41
2018-06-09T17:44:10.048Z,41
2018-06-09T17:49:09.910Z,41
2018-06-09T17:54:09.528Z,42
2018-06-09T17:59:09.364Z,42
2018-06-09T18:04:09.429Z,42
2018-06-09T18:09:10.133Z,42
2018-06-09T18:14:09.797Z,40
2018-06-09T18:19:09.688Z,40
2018-06-09T18:24:09.487Z,41
2018-06-09T18:29:10.323Z,41
2018-06-09T18:34:10.037Z,41
2018-06-09T18:39:09.850Z,41
2018-06-09T18:44:09.618Z,41
2018-06-09T18:49:09.418Z,41
2018-06-09T18:54:10.116Z,40
2018-06-09T18:59:09.873Z,40
2018-06-09T19:04:09.791Z,39
2018-06-09T19:09:09.669Z,39
2018-06-09T19:14:10.233Z,39
2018-06-09T19:19:10.045Z,39
2018-06-09T19:24:09.972Z,39
2018-06-09T19:29:09.771Z,39
2018-06-09T19:34:09.563Z,40
2018-06-09T19:39:09.655Z,40
2018-06-09T19:44:10.314Z,41
2018-06-09T19:49:10.113Z,41
2018-06-09T19:54:09.836Z,43
2018-06-09T19:59:09.672Z,43
2018-06-09T20:04:10.539Z,44
2018-06-09T20:09:10.384Z,44
2018-06-09T20:14:10.107Z,44
2018-06-09T20:19:09.960Z,44
2018-06-09T20:24:09.675Z,46
2018-06-09T20:29:09.496Z,46
2018-06-09T20:34:10.331Z,47
2018-06-09T20:39:10.250Z,47
2018-06-09T20:44:10.032Z,48
2018-06-09T20:49:09.831Z,48
2018-06-09T20:54:10.476Z,49
2018-06-09T20:59:10.438Z,49
2018-06-09T21:04:10.444Z,49
2018-06-09T21:09:10.184Z,49
2018-06-09T21:14:10.109Z,51
2018-06-09T21:19:09.881Z,51
2018-06-09T21:24:09.663Z,52
2018-06-09T21:29:10.481Z,52
2018-06-09T21:34:10.302Z,52
2018-06-09T21:39:10.176Z,52
2018-06-09T21:44:10.014Z,54
2018-06-09T21:49:09.857Z,54
2018-06-09T21:54:09.594Z,54
2018-06-09T21:59:10.340Z,54
2018-06-09T22:04:10.531Z,55
2018-06-09T22:09:10.391Z,55
2018-06-09T22:14:09.868Z,55
2018-06-09T22:19:09.768Z,55
2018-06-09T22:24:10.659Z,56
2018-06-09T22:29:10.573Z,56
2018-06-09T22:34:09.688Z,57
2018-06-09T22:39:10.455Z,57
2018-06-09T22:44:10.134Z,57
2018-06-09T22:49:09.979Z,57
2018-06-09T22:54:09.719Z,58
2018-06-09T22:59:10.481Z,58
2018-06-09T23:04:10.608Z,59
2018-06-09T23:09:10.404Z,59
2018-06-09T23:14:09.794Z,60
2018-06-09T23:19:10.584Z,60
2018-06-09T23:24:10.358Z,61
2018-06-09T23:29:10.254Z,61
2018-06-09T23:34:10.077Z,61
2018-06-09T23:39:09.804Z,61
2018-06-09T23:44:10.503Z,62
2018-06-09T23:49:10.263Z,62
2018-06-09T23:54:10.019Z,62
2018-06-09T23:59:09.981Z,62
